sensor_id;sensor_type;location;lat;lon;timestamp;temperature;humidity
21035;DHT22;10676;50.848;3.272;2022-09-17T00:00:56;11.40;99.90
21035;DHT22;10676;50.848;3.272;2022-09-17T00:03:24;11.50;99.90
21035;DHT22;10676;50.848;3.272;2022-09-17T00:05:58;11.50;99.90
21035;DHT22;10676;50.848;3.272;2022-09-17T00:08:25;11.50;99.90
21035;DHT22;10676;50.848;3.272;2022-09-17T00:10:50;11.60;99.90
21035;DHT22;10676;50.848;3.272;2022-09-17T00:13:16;11.50;99.90
21035;DHT22;10676;50.848;3.272;2022-09-17T00:15:43;11.40;99.90
21035;DHT22;10676;50.848;3.272;2022-09-17T00:18:10;11.30;99.90
21035;DHT22;10676;50.848;3.272;2022-09-17T00:20:41;11.20;99.90
21035;DHT22;10676;50.848;3.272;2022-09-17T00:23:08;11.20;99.90
21035;DHT22;10676;50.848;3.272;2022-09-17T00:25:40;11.20;99.90
21035;DHT22;10676;50.848;3.272;2022-09-17T00:28:06;11.10;99.90
21035;DHT22;10676;50.848;3.272;2022-09-17T00:30:31;11.20;99.90
21035;DHT22;10676;50.848;3.272;2022-09-17T00:32:57;11.20;99.90
21035;DHT22;10676;50.848;3.272;2022-09-17T00:35:26;11.20;99.90
21035;DHT22;10676;50.848;3.272;2022-09-17T00:37:52;11.20;99.90
21035;DHT22;10676;50.848;3.272;2022-09-17T00:40:19;11.30;99.90
21035;DHT22;10676;50.848;3.272;2022-09-17T00:42:45;11.30;99.90
21035;DHT22;10676;50.848;3.272;2022-09-17T00:45:11;11.40;99.90
21035;DHT22;10676;50.848;3.272;2022-09-17T00:47:43;11.40;99.90
21035;DHT22;10676;50.848;3.272;2022-09-17T00:50:18;11.40;99.90
21035;DHT22;10676;50.848;3.272;2022-09-17T00:52:52;11.40;99.90
21035;DHT22;10676;50.848;3.272;2022-09-17T00:55:41;11.40;99.90
21035;DHT22;10676;50.848;3.272;2022-09-17T00:58:10;11.40;99.90
21035;DHT22;10676;50.848;3.272;2022-09-17T01:00:36;11.50;99.90
21035;DHT22;10676;50.848;3.272;2022-09-17T01:03:02;11.40;99.90
21035;DHT22;10676;50.848;3.272;2022-09-17T01:14:18;11.30;99.90
21035;DHT22;10676;50.848;3.272;2022-09-17T01:16:58;11.30;99.90
21035;DHT22;10676;50.848;3.272;2022-09-17T01:42:23;11.10;99.90
21035;DHT22;10676;50.848;3.272;2022-09-17T01:47:43;11.00;99.90
21035;DHT22;10676;50.848;3.272;2022-09-17T01:50:16;11.00;99.90
21035;DHT22;10676;50.848;3.272;2022-09-17T01:52:45;10.90;99.90
21035;DHT22;10676;50.848;3.272;2022-09-17T01:55:14;10.90;99.90
21035;DHT22;10676;50.848;3.272;2022-09-17T01:57:53;10.90;99.90
21035;DHT22;10676;50.848;3.272;2022-09-17T02:00:21;10.80;99.90
21035;DHT22;10676;50.848;3.272;2022-09-17T02:03:13;10.80;99.90
21035;DHT22;10676;50.848;3.272;2022-09-17T02:05:49;10.70;99.90
21035;DHT22;10676;50.848;3.272;2022-09-17T02:08:20;10.70;99.90
21035;DHT22;10676;50.848;3.272;2022-09-17T02:11:05;10.60;99.90
21035;DHT22;10676;50.848;3.272;2022-09-17T02:13:53;10.60;99.90
21035;DHT22;10676;50.848;3.272;2022-09-17T02:16:28;10.60;99.90
21035;DHT22;10676;50.848;3.272;2022-09-17T02:26:49;10.30;99.90
21035;DHT22;10676;50.848;3.272;2022-09-17T02:31:56;10.30;99.90
21035;DHT22;10676;50.848;3.272;2022-09-17T02:34:23;10.20;99.90
21035;DHT22;10676;50.848;3.272;2022-09-17T02:36:50;10.30;99.90
21035;DHT22;10676;50.848;3.272;2022-09-17T02:39:17;10.30;99.90
21035;DHT22;10676;50.848;3.272;2022-09-17T02:41:50;10.40;99.90
21035;DHT22;10676;50.848;3.272;2022-09-17T02:50:21;10.80;99.90
21035;DHT22;10676;50.848;3.272;2022-09-17T03:00:43;10.80;99.90
21035;DHT22;10676;50.848;3.272;2022-09-17T03:05:47;10.70;99.90
21035;DHT22;10676;50.848;3.272;2022-09-17T03:08:13;10.60;99.90
21035;DHT22;10676;50.848;3.272;2022-09-17T03:10:39;10.60;99.90
21035;DHT22;10676;50.848;3.272;2022-09-17T03:13:06;10.60;99.90
21035;DHT22;10676;50.848;3.272;2022-09-17T03:15:31;10.60;99.90
21035;DHT22;10676;50.848;3.272;2022-09-17T03:17:57;10.70;99.90
21035;DHT22;10676;50.848;3.272;2022-09-17T03:20:23;10.80;99.90
21035;DHT22;10676;50.848;3.272;2022-09-17T03:22:50;10.80;99.90
21035;DHT22;10676;50.848;3.272;2022-09-17T03:25:16;10.90;99.90
21035;DHT22;10676;50.848;3.272;2022-09-17T03:27:42;11.00;99.90
21035;DHT22;10676;50.848;3.272;2022-09-17T03:30:08;11.00;99.90
21035;DHT22;10676;50.848;3.272;2022-09-17T03:32:33;11.00;99.90
21035;DHT22;10676;50.848;3.272;2022-09-17T03:34:59;11.10;99.90
21035;DHT22;10676;50.848;3.272;2022-09-17T03:37:25;11.10;99.90
21035;DHT22;10676;50.848;3.272;2022-09-17T03:39:50;11.00;99.90
21035;DHT22;10676;50.848;3.272;2022-09-17T03:42:16;11.00;99.90
21035;DHT22;10676;50.848;3.272;2022-09-17T03:44:42;11.00;99.90
21035;DHT22;10676;50.848;3.272;2022-09-17T03:47:08;11.10;99.90
21035;DHT22;10676;50.848;3.272;2022-09-17T03:49:33;11.10;99.90
21035;DHT22;10676;50.848;3.272;2022-09-17T03:51:59;11.10;99.90
21035;DHT22;10676;50.848;3.272;2022-09-17T03:54:25;11.00;99.90
21035;DHT22;10676;50.848;3.272;2022-09-17T03:56:50;11.10;99.90
21035;DHT22;10676;50.848;3.272;2022-09-17T03:59:16;11.00;99.90
21035;DHT22;10676;50.848;3.272;2022-09-17T04:01:42;11.00;99.90
21035;DHT22;10676;50.848;3.272;2022-09-17T04:04:07;11.00;99.90
21035;DHT22;10676;50.848;3.272;2022-09-17T04:06:33;10.90;99.90
21035;DHT22;10676;50.848;3.272;2022-09-17T04:08:59;10.90;99.90
21035;DHT22;10676;50.848;3.272;2022-09-17T04:11:29;10.90;99.90
21035;DHT22;10676;50.848;3.272;2022-09-17T04:13:55;10.90;99.90
21035;DHT22;10676;50.848;3.272;2022-09-17T04:16:21;10.90;99.90
21035;DHT22;10676;50.848;3.272;2022-09-17T04:18:46;11.00;99.90
21035;DHT22;10676;50.848;3.272;2022-09-17T04:21:12;11.00;99.90
21035;DHT22;10676;50.848;3.272;2022-09-17T04:23:38;11.00;99.90
21035;DHT22;10676;50.848;3.272;2022-09-17T04:26:03;11.10;99.90
21035;DHT22;10676;50.848;3.272;2022-09-17T04:28:29;11.10;99.90
21035;DHT22;10676;50.848;3.272;2022-09-17T04:30:55;11.10;99.90
21035;DHT22;10676;50.848;3.272;2022-09-17T04:33:22;11.20;99.90
21035;DHT22;10676;50.848;3.272;2022-09-17T04:35:47;11.20;99.90
21035;DHT22;10676;50.848;3.272;2022-09-17T04:38:13;11.10;99.90
21035;DHT22;10676;50.848;3.272;2022-09-17T04:40:43;11.10;99.90
21035;DHT22;10676;50.848;3.272;2022-09-17T04:43:08;11.00;99.90
21035;DHT22;10676;50.848;3.272;2022-09-17T04:45:35;11.00;99.90
21035;DHT22;10676;50.848;3.272;2022-09-17T04:48:01;11.00;99.90
21035;DHT22;10676;50.848;3.272;2022-09-17T04:50:26;10.90;99.90
21035;DHT22;10676;50.848;3.272;2022-09-17T04:52:52;10.90;99.90
21035;DHT22;10676;50.848;3.272;2022-09-17T04:55:22;10.90;99.90
21035;DHT22;10676;50.848;3.272;2022-09-17T04:57:49;10.90;99.90
21035;DHT22;10676;50.848;3.272;2022-09-17T05:00:17;10.80;99.90
21035;DHT22;10676;50.848;3.272;2022-09-17T05:02:49;10.80;99.90
21035;DHT22;10676;50.848;3.272;2022-09-17T05:05:16;10.80;99.90
21035;DHT22;10676;50.848;3.272;2022-09-17T05:07:43;10.80;99.90
21035;DHT22;10676;50.848;3.272;2022-09-17T05:10:10;10.80;99.90
21035;DHT22;10676;50.848;3.272;2022-09-17T05:12:36;10.80;99.90
21035;DHT22;10676;50.848;3.272;2022-09-17T05:15:03;10.90;99.90
21035;DHT22;10676;50.848;3.272;2022-09-17T05:17:29;10.90;99.90
21035;DHT22;10676;50.848;3.272;2022-09-17T05:19:54;10.90;99.90
21035;DHT22;10676;50.848;3.272;2022-09-17T05:22:20;10.90;99.90
21035;DHT22;10676;50.848;3.272;2022-09-17T05:24:46;11.00;99.90
21035;DHT22;10676;50.848;3.272;2022-09-17T05:27:12;11.00;99.90
21035;DHT22;10676;50.848;3.272;2022-09-17T05:29:37;11.00;99.90
21035;DHT22;10676;50.848;3.272;2022-09-17T05:32:05;11.10;99.90
21035;DHT22;10676;50.848;3.272;2022-09-17T05:34:31;11.20;99.90
21035;DHT22;10676;50.848;3.272;2022-09-17T05:36:57;11.10;99.90
21035;DHT22;10676;50.848;3.272;2022-09-17T05:39:23;11.10;99.90
21035;DHT22;10676;50.848;3.272;2022-09-17T05:41:53;11.10;99.90
21035;DHT22;10676;50.848;3.272;2022-09-17T05:44:20;11.00;99.90
21035;DHT22;10676;50.848;3.272;2022-09-17T05:46:46;11.00;99.90
21035;DHT22;10676;50.848;3.272;2022-09-17T05:49:13;10.90;99.90
21035;DHT22;10676;50.848;3.272;2022-09-17T05:51:42;10.90;99.90
21035;DHT22;10676;50.848;3.272;2022-09-17T05:54:08;10.90;99.90
21035;DHT22;10676;50.848;3.272;2022-09-17T05:56:34;10.90;99.90
21035;DHT22;10676;50.848;3.272;2022-09-17T05:58:59;11.00;99.90
21035;DHT22;10676;50.848;3.272;2022-09-17T06:01:25;11.00;99.90
21035;DHT22;10676;50.848;3.272;2022-09-17T06:03:51;11.10;99.90
21035;DHT22;10676;50.848;3.272;2022-09-17T06:06:16;11.10;99.90
21035;DHT22;10676;50.848;3.272;2022-09-17T06:08:42;11.20;99.90
21035;DHT22;10676;50.848;3.272;2022-09-17T06:11:08;11.20;99.90
21035;DHT22;10676;50.848;3.272;2022-09-17T06:13:34;11.30;99.90
21035;DHT22;10676;50.848;3.272;2022-09-17T06:16:01;11.30;99.90
21035;DHT22;10676;50.848;3.272;2022-09-17T06:18:30;11.40;99.90
21035;DHT22;10676;50.848;3.272;2022-09-17T06:20:58;11.50;99.90
21035;DHT22;10676;50.848;3.272;2022-09-17T06:23:24;11.60;99.90
21035;DHT22;10676;50.848;3.272;2022-09-17T06:25:58;11.70;99.90
21035;DHT22;10676;50.848;3.272;2022-09-17T06:28:25;11.80;99.90
21035;DHT22;10676;50.848;3.272;2022-09-17T06:30:51;11.80;99.90
21035;DHT22;10676;50.848;3.272;2022-09-17T06:33:22;11.80;99.90
21035;DHT22;10676;50.848;3.272;2022-09-17T06:35:48;11.90;99.90
21035;DHT22;10676;50.848;3.272;2022-09-17T06:38:14;12.00;99.90
21035;DHT22;10676;50.848;3.272;2022-09-17T06:40:39;12.20;99.90
21035;DHT22;10676;50.848;3.272;2022-09-17T06:43:05;12.30;99.90
21035;DHT22;10676;50.848;3.272;2022-09-17T06:45:31;12.30;99.90
21035;DHT22;10676;50.848;3.272;2022-09-17T06:47:57;12.40;99.90
21035;DHT22;10676;50.848;3.272;2022-09-17T06:50:27;12.40;99.90
21035;DHT22;10676;50.848;3.272;2022-09-17T06:52:53;12.40;99.90
21035;DHT22;10676;50.848;3.272;2022-09-17T06:55:20;12.40;99.90
21035;DHT22;10676;50.848;3.272;2022-09-17T06:57:45;12.50;99.90
21035;DHT22;10676;50.848;3.272;2022-09-17T07:00:13;12.50;99.90
21035;DHT22;10676;50.848;3.272;2022-09-17T07:02:39;12.60;99.90
21035;DHT22;10676;50.848;3.272;2022-09-17T07:05:06;12.70;99.90
21035;DHT22;10676;50.848;3.272;2022-09-17T07:07:32;12.80;99.90
21035;DHT22;10676;50.848;3.272;2022-09-17T07:10:00;12.90;99.90
21035;DHT22;10676;50.848;3.272;2022-09-17T07:12:26;13.00;99.90
21035;DHT22;10676;50.848;3.272;2022-09-17T07:14:51;13.20;99.90
21035;DHT22;10676;50.848;3.272;2022-09-17T07:17:17;13.30;99.90
21035;DHT22;10676;50.848;3.272;2022-09-17T07:19:44;13.70;99.90
21035;DHT22;10676;50.848;3.272;2022-09-17T07:22:10;14.70;99.90
21035;DHT22;10676;50.848;3.272;2022-09-17T07:24:35;15.50;99.90
21035;DHT22;10676;50.848;3.272;2022-09-17T07:27:01;16.30;99.90
21035;DHT22;10676;50.848;3.272;2022-09-17T07:29:27;17.50;99.90
21035;DHT22;10676;50.848;3.272;2022-09-17T07:31:53;18.60;99.90
21035;DHT22;10676;50.848;3.272;2022-09-17T07:34:19;19.20;99.90
21035;DHT22;10676;50.848;3.272;2022-09-17T07:36:44;19.70;99.90
21035;DHT22;10676;50.848;3.272;2022-09-17T07:39:10;20.40;99.90
21035;DHT22;10676;50.848;3.272;2022-09-17T07:41:38;21.20;99.90
21035;DHT22;10676;50.848;3.272;2022-09-17T07:44:04;22.00;99.90
21035;DHT22;10676;50.848;3.272;2022-09-17T07:46:34;22.60;99.90
21035;DHT22;10676;50.848;3.272;2022-09-17T07:49:00;23.20;99.90
21035;DHT22;10676;50.848;3.272;2022-09-17T07:51:27;23.60;99.90
21035;DHT22;10676;50.848;3.272;2022-09-17T07:53:57;23.50;99.90
21035;DHT22;10676;50.848;3.272;2022-09-17T07:56:25;22.90;99.90
21035;DHT22;10676;50.848;3.272;2022-09-17T07:58:50;22.10;99.90
21035;DHT22;10676;50.848;3.272;2022-09-17T08:01:17;21.20;99.90
21035;DHT22;10676;50.848;3.272;2022-09-17T08:03:47;20.30;99.90
21035;DHT22;10676;50.848;3.272;2022-09-17T08:06:15;19.60;99.90
21035;DHT22;10676;50.848;3.272;2022-09-17T08:08:42;19.60;99.90
21035;DHT22;10676;50.848;3.272;2022-09-17T08:11:17;20.30;99.90
21035;DHT22;10676;50.848;3.272;2022-09-17T08:13:47;21.00;99.90
21035;DHT22;10676;50.848;3.272;2022-09-17T08:16:13;21.00;99.90
21035;DHT22;10676;50.848;3.272;2022-09-17T08:18:40;20.40;99.90
21035;DHT22;10676;50.848;3.272;2022-09-17T08:21:09;19.80;99.90
21035;DHT22;10676;50.848;3.272;2022-09-17T08:23:36;19.10;99.90
21035;DHT22;10676;50.848;3.272;2022-09-17T08:26:04;18.50;99.90
21035;DHT22;10676;50.848;3.272;2022-09-17T08:28:31;18.20;99.90
21035;DHT22;10676;50.848;3.272;2022-09-17T08:31:02;19.00;99.90
21035;DHT22;10676;50.848;3.272;2022-09-17T08:33:32;20.20;99.90
21035;DHT22;10676;50.848;3.272;2022-09-17T08:35:58;21.40;99.90
21035;DHT22;10676;50.848;3.272;2022-09-17T08:38:25;21.90;99.90
21035;DHT22;10676;50.848;3.272;2022-09-17T08:41:18;21.50;99.90
21035;DHT22;10676;50.848;3.272;2022-09-17T08:46:59;19.80;99.90
21035;DHT22;10676;50.848;3.272;2022-09-17T08:57:51;18.00;99.90
21035;DHT22;10676;50.848;3.272;2022-09-17T09:00:22;17.70;99.90
21035;DHT22;10676;50.848;3.272;2022-09-17T09:05:47;18.40;99.90
21035;DHT22;10676;50.848;3.272;2022-09-17T09:11:04;20.30;99.90
21035;DHT22;10676;50.848;3.272;2022-09-17T09:13:38;20.10;99.90
21035;DHT22;10676;50.848;3.272;2022-09-17T09:16:31;19.40;99.90
21035;DHT22;10676;50.848;3.272;2022-09-17T09:25:01;17.60;99.90
21035;DHT22;10676;50.848;3.272;2022-09-17T09:27:31;17.10;99.90
21035;DHT22;10676;50.848;3.272;2022-09-17T09:30:10;16.80;99.90
21035;DHT22;10676;50.848;3.272;2022-09-17T09:32:56;16.60;99.90
21035;DHT22;10676;50.848;3.272;2022-09-17T09:35:30;16.50;99.90
21035;DHT22;10676;50.848;3.272;2022-09-17T09:40:57;18.00;99.90
21035;DHT22;10676;50.848;3.272;2022-09-17T09:46:13;19.50;99.90
21035;DHT22;10676;50.848;3.272;2022-09-17T09:51:45;20.60;99.90
21035;DHT22;10676;50.848;3.272;2022-09-17T09:56:57;22.40;99.90
21035;DHT22;10676;50.848;3.272;2022-09-17T09:59:26;21.90;99.90
21035;DHT22;10676;50.848;3.272;2022-09-17T10:01:52;21.20;99.90
21035;DHT22;10676;50.848;3.272;2022-09-17T10:04:24;20.30;99.90
21035;DHT22;10676;50.848;3.272;2022-09-17T10:06:52;19.50;99.90
21035;DHT22;10676;50.848;3.272;2022-09-17T10:09:20;18.80;99.90
21035;DHT22;10676;50.848;3.272;2022-09-17T10:12:00;18.20;99.90
21035;DHT22;10676;50.848;3.272;2022-09-17T10:14:28;17.70;99.90
21035;DHT22;10676;50.848;3.272;2022-09-17T10:17:19;17.60;99.90
21035;DHT22;10676;50.848;3.272;2022-09-17T10:20:32;17.50;99.90
21035;DHT22;10676;50.848;3.272;2022-09-17T10:22:39;17.10;99.90
21035;DHT22;10676;50.848;3.272;2022-09-17T10:27:46;16.20;99.90
21035;DHT22;10676;50.848;3.272;2022-09-17T10:30:15;15.70;99.90
21035;DHT22;10676;50.848;3.272;2022-09-17T10:32:42;15.30;99.90
21035;DHT22;10676;50.848;3.272;2022-09-17T10:37:48;15.10;99.90
21035;DHT22;10676;50.848;3.272;2022-09-17T10:43:12;16.10;99.90
21035;DHT22;10676;50.848;3.272;2022-09-17T10:45:30;16.60;99.90
21035;DHT22;10676;50.848;3.272;2022-09-17T10:47:58;16.80;99.90
21035;DHT22;10676;50.848;3.272;2022-09-17T10:50:30;16.80;99.90
21035;DHT22;10676;50.848;3.272;2022-09-17T10:53:15;16.40;99.90
21035;DHT22;10676;50.848;3.272;2022-09-17T10:58:23;15.70;99.90
21035;DHT22;10676;50.848;3.272;2022-09-17T11:09:41;15.70;99.90
21035;DHT22;10676;50.848;3.272;2022-09-17T11:12:27;15.70;99.90
21035;DHT22;10676;50.848;3.272;2022-09-17T11:15:04;16.00;99.90
21035;DHT22;10676;50.848;3.272;2022-09-17T11:23:19;18.60;99.90
21035;DHT22;10676;50.848;3.272;2022-09-17T11:35:06;19.50;99.90
21035;DHT22;10676;50.848;3.272;2022-09-17T11:37:40;19.60;99.90
21035;DHT22;10676;50.848;3.272;2022-09-17T11:42:48;20.30;99.90
21035;DHT22;10676;50.848;3.272;2022-09-17T11:45:35;20.10;99.90
21035;DHT22;10676;50.848;3.272;2022-09-17T11:48:12;20.10;99.90
21035;DHT22;10676;50.848;3.272;2022-09-17T11:56:53;21.10;99.90
21035;DHT22;10676;50.848;3.272;2022-09-17T12:02:04;21.30;99.90
21035;DHT22;10676;50.848;3.272;2022-09-17T12:05:06;21.50;99.90
21035;DHT22;10676;50.848;3.272;2022-09-17T12:15:35;22.10;99.90
21035;DHT22;10676;50.848;3.272;2022-09-17T12:20:58;22.20;99.40
21035;DHT22;10676;50.848;3.272;2022-09-17T12:23:44;22.20;99.70
21035;DHT22;10676;50.848;3.272;2022-09-17T12:29:10;22.10;99.10
21035;DHT22;10676;50.848;3.272;2022-09-17T12:31:48;21.90;99.30
21035;DHT22;10676;50.848;3.272;2022-09-17T12:40:20;22.30;99.90
21035;DHT22;10676;50.848;3.272;2022-09-17T12:45:50;22.20;98.00
21035;DHT22;10676;50.848;3.272;2022-09-17T12:54:15;20.20;99.90
21035;DHT22;10676;50.848;3.272;2022-09-17T13:23:33;14.30;99.90
21035;DHT22;10676;50.848;3.272;2022-09-17T13:26:00;14.40;99.90
21035;DHT22;10676;50.848;3.272;2022-09-17T13:28:49;14.40;99.90
21035;DHT22;10676;50.848;3.272;2022-09-17T13:34:27;14.60;99.90
21035;DHT22;10676;50.848;3.272;2022-09-17T13:36:56;14.80;99.90
21035;DHT22;10676;50.848;3.272;2022-09-17T13:45:06;14.80;99.90
21035;DHT22;10676;50.848;3.272;2022-09-17T13:47:37;14.60;99.90
21035;DHT22;10676;50.848;3.272;2022-09-17T13:50:11;14.50;99.90
21035;DHT22;10676;50.848;3.272;2022-09-17T13:52:49;14.40;99.90
21035;DHT22;10676;50.848;3.272;2022-09-17T13:55:52;14.30;99.90
21035;DHT22;10676;50.848;3.272;2022-09-17T14:22:13;14.80;99.90
21035;DHT22;10676;50.848;3.272;2022-09-17T14:27:19;15.10;99.90
21035;DHT22;10676;50.848;3.272;2022-09-17T14:35:30;15.30;99.90
21035;DHT22;10676;50.848;3.272;2022-09-17T14:38:20;15.00;99.90
21035;DHT22;10676;50.848;3.272;2022-09-17T14:46:21;14.20;99.90
21035;DHT22;10676;50.848;3.272;2022-09-17T14:48:47;14.20;99.90
21035;DHT22;10676;50.848;3.272;2022-09-17T14:53:43;14.50;99.90
21035;DHT22;10676;50.848;3.272;2022-09-17T14:56:11;14.70;99.90
21035;DHT22;10676;50.848;3.272;2022-09-17T14:58:41;14.90;99.90
21035;DHT22;10676;50.848;3.272;2022-09-17T15:03:46;15.30;99.90
21035;DHT22;10676;50.848;3.272;2022-09-17T15:06:22;15.30;99.90
21035;DHT22;10676;50.848;3.272;2022-09-17T15:08:48;15.30;99.90
21035;DHT22;10676;50.848;3.272;2022-09-17T15:11:13;15.20;99.90
21035;DHT22;10676;50.848;3.272;2022-09-17T15:13:49;14.80;99.90
21035;DHT22;10676;50.848;3.272;2022-09-17T15:16:19;14.50;99.90
21035;DHT22;10676;50.848;3.272;2022-09-17T15:18:57;14.30;99.90
21035;DHT22;10676;50.848;3.272;2022-09-17T15:21:41;14.10;99.90
21035;DHT22;10676;50.848;3.272;2022-09-17T15:24:37;13.90;99.90
21035;DHT22;10676;50.848;3.272;2022-09-17T15:27:29;13.70;99.90
21035;DHT22;10676;50.848;3.272;2022-09-17T15:30:23;13.60;99.90
21035;DHT22;10676;50.848;3.272;2022-09-17T15:32:56;13.60;99.90
21035;DHT22;10676;50.848;3.272;2022-09-17T15:35:30;13.50;99.90
21035;DHT22;10676;50.848;3.272;2022-09-17T15:37:57;13.50;99.90
21035;DHT22;10676;50.848;3.272;2022-09-17T15:45:30;13.40;99.90
21035;DHT22;10676;50.848;3.272;2022-09-17T15:48:00;13.40;99.90
21035;DHT22;10676;50.848;3.272;2022-09-17T15:50:27;13.40;99.90
21035;DHT22;10676;50.848;3.272;2022-09-17T15:55:44;13.30;99.90
21035;DHT22;10676;50.848;3.272;2022-09-17T16:00:46;13.40;99.90
21035;DHT22;10676;50.848;3.272;2022-09-17T16:06:02;13.40;99.90
21035;DHT22;10676;50.848;3.272;2022-09-17T16:08:33;13.50;99.90
21035;DHT22;10676;50.848;3.272;2022-09-17T16:10:59;13.50;99.90
21035;DHT22;10676;50.848;3.272;2022-09-17T16:13:24;13.40;99.90
21035;DHT22;10676;50.848;3.272;2022-09-17T16:15:50;13.50;99.90
21035;DHT22;10676;50.848;3.272;2022-09-17T16:18:16;13.40;99.90
21035;DHT22;10676;50.848;3.272;2022-09-17T16:20:41;13.40;99.90
21035;DHT22;10676;50.848;3.272;2022-09-17T16:23:07;13.40;99.90
21035;DHT22;10676;50.848;3.272;2022-09-17T16:25:33;13.50;99.90
21035;DHT22;10676;50.848;3.272;2022-09-17T16:28:14;13.50;99.90
21035;DHT22;10676;50.848;3.272;2022-09-17T16:30:44;13.50;99.90
21035;DHT22;10676;50.848;3.272;2022-09-17T16:33:14;13.50;99.90
21035;DHT22;10676;50.848;3.272;2022-09-17T16:35:41;13.50;99.90
21035;DHT22;10676;50.848;3.272;2022-09-17T16:38:07;13.40;99.90
21035;DHT22;10676;50.848;3.272;2022-09-17T16:40:39;13.50;99.90
21035;DHT22;10676;50.848;3.272;2022-09-17T16:43:05;13.50;99.90
21035;DHT22;10676;50.848;3.272;2022-09-17T16:45:31;13.60;99.90
21035;DHT22;10676;50.848;3.272;2022-09-17T16:47:56;13.70;99.90
21035;DHT22;10676;50.848;3.272;2022-09-17T16:50:22;13.70;99.90
21035;DHT22;10676;50.848;3.272;2022-09-17T16:52:48;13.70;99.90
21035;DHT22;10676;50.848;3.272;2022-09-17T16:55:15;13.60;99.90
21035;DHT22;10676;50.848;3.272;2022-09-17T16:57:42;13.60;99.90
21035;DHT22;10676;50.848;3.272;2022-09-17T17:00:10;13.60;99.90
21035;DHT22;10676;50.848;3.272;2022-09-17T17:02:49;13.60;99.90
21035;DHT22;10676;50.848;3.272;2022-09-17T17:05:15;13.60;99.90
21035;DHT22;10676;50.848;3.272;2022-09-17T17:07:41;13.70;99.90
21035;DHT22;10676;50.848;3.272;2022-09-17T17:10:07;13.90;99.90
21035;DHT22;10676;50.848;3.272;2022-09-17T17:12:36;14.00;99.90
21035;DHT22;10676;50.848;3.272;2022-09-17T17:15:04;14.10;99.90
21035;DHT22;10676;50.848;3.272;2022-09-17T17:17:31;14.10;99.90
21035;DHT22;10676;50.848;3.272;2022-09-17T17:19:57;14.10;99.90
21035;DHT22;10676;50.848;3.272;2022-09-17T17:22:23;14.00;99.90
21035;DHT22;10676;50.848;3.272;2022-09-17T17:24:49;13.90;99.90
21035;DHT22;10676;50.848;3.272;2022-09-17T17:27:15;13.80;99.90
21035;DHT22;10676;50.848;3.272;2022-09-17T17:29:40;13.70;99.90
21035;DHT22;10676;50.848;3.272;2022-09-17T17:32:06;13.60;99.90
21035;DHT22;10676;50.848;3.272;2022-09-17T17:34:31;13.60;99.90
21035;DHT22;10676;50.848;3.272;2022-09-17T17:36:58;13.50;99.90
21035;DHT22;10676;50.848;3.272;2022-09-17T17:39:24;13.50;99.90
21035;DHT22;10676;50.848;3.272;2022-09-17T17:41:49;13.50;99.90
21035;DHT22;10676;50.848;3.272;2022-09-17T17:44:15;13.60;99.90
21035;DHT22;10676;50.848;3.272;2022-09-17T17:46:41;13.60;99.90
21035;DHT22;10676;50.848;3.272;2022-09-17T17:49:07;13.60;99.90
21035;DHT22;10676;50.848;3.272;2022-09-17T17:51:33;13.60;99.90
21035;DHT22;10676;50.848;3.272;2022-09-17T17:53:59;13.60;99.90
21035;DHT22;10676;50.848;3.272;2022-09-17T17:56:25;13.60;99.90
21035;DHT22;10676;50.848;3.272;2022-09-17T17:58:55;13.60;99.90
21035;DHT22;10676;50.848;3.272;2022-09-17T18:01:28;13.50;99.90
21035;DHT22;10676;50.848;3.272;2022-09-17T18:03:55;13.40;99.90
21035;DHT22;10676;50.848;3.272;2022-09-17T18:06:21;13.30;99.90
21035;DHT22;10676;50.848;3.272;2022-09-17T18:08:47;13.20;99.90
21035;DHT22;10676;50.848;3.272;2022-09-17T18:11:12;13.10;99.90
21035;DHT22;10676;50.848;3.272;2022-09-17T18:13:40;13.10;99.90
21035;DHT22;10676;50.848;3.272;2022-09-17T18:16:06;13.10;99.90
21035;DHT22;10676;50.848;3.272;2022-09-17T18:18:38;13.00;99.90
21035;DHT22;10676;50.848;3.272;2022-09-17T18:21:06;13.00;99.90
21035;DHT22;10676;50.848;3.272;2022-09-17T18:23:36;12.90;99.90
21035;DHT22;10676;50.848;3.272;2022-09-17T18:26:04;12.90;99.90
21035;DHT22;10676;50.848;3.272;2022-09-17T18:28:32;12.80;99.90
21035;DHT22;10676;50.848;3.272;2022-09-17T18:31:10;12.70;99.90
21035;DHT22;10676;50.848;3.272;2022-09-17T18:33:40;12.60;99.90
21035;DHT22;10676;50.848;3.272;2022-09-17T18:36:05;12.50;99.90
21035;DHT22;10676;50.848;3.272;2022-09-17T18:38:31;12.40;99.90
21035;DHT22;10676;50.848;3.272;2022-09-17T18:41:10;12.40;99.90
21035;DHT22;10676;50.848;3.272;2022-09-17T18:43:35;12.30;99.90
21035;DHT22;10676;50.848;3.272;2022-09-17T18:46:02;12.20;99.90
21035;DHT22;10676;50.848;3.272;2022-09-17T18:48:28;12.10;99.90
21035;DHT22;10676;50.848;3.272;2022-09-17T18:50:58;12.10;99.90
21035;DHT22;10676;50.848;3.272;2022-09-17T18:53:28;12.00;99.90
21035;DHT22;10676;50.848;3.272;2022-09-17T18:55:57;11.80;99.90
21035;DHT22;10676;50.848;3.272;2022-09-17T18:58:24;11.70;99.90
21035;DHT22;10676;50.848;3.272;2022-09-17T19:00:50;11.60;99.90
21035;DHT22;10676;50.848;3.272;2022-09-17T19:03:16;11.50;99.90
21035;DHT22;10676;50.848;3.272;2022-09-17T19:05:41;11.40;99.90
21035;DHT22;10676;50.848;3.272;2022-09-17T19:08:07;11.20;99.90
21035;DHT22;10676;50.848;3.272;2022-09-17T19:10:33;11.20;99.90
21035;DHT22;10676;50.848;3.272;2022-09-17T19:13:00;11.00;99.90
21035;DHT22;10676;50.848;3.272;2022-09-17T19:15:27;10.90;99.90
21035;DHT22;10676;50.848;3.272;2022-09-17T19:17:53;10.80;99.90
21035;DHT22;10676;50.848;3.272;2022-09-17T19:20:19;10.70;99.90
21035;DHT22;10676;50.848;3.272;2022-09-17T19:22:46;10.60;99.90
21035;DHT22;10676;50.848;3.272;2022-09-17T19:25:13;10.40;99.90
21035;DHT22;10676;50.848;3.272;2022-09-17T19:27:39;10.40;99.90
21035;DHT22;10676;50.848;3.272;2022-09-17T19:30:05;10.30;99.90
21035;DHT22;10676;50.848;3.272;2022-09-17T19:32:31;10.30;99.90
21035;DHT22;10676;50.848;3.272;2022-09-17T19:34:57;10.30;99.90
21035;DHT22;10676;50.848;3.272;2022-09-17T19:37:24;10.30;99.90
21035;DHT22;10676;50.848;3.272;2022-09-17T19:39:50;10.30;99.90
21035;DHT22;10676;50.848;3.272;2022-09-17T19:42:15;10.30;99.90
21035;DHT22;10676;50.848;3.272;2022-09-17T19:44:41;10.30;99.90
21035;DHT22;10676;50.848;3.272;2022-09-17T19:47:06;10.30;99.90
21035;DHT22;10676;50.848;3.272;2022-09-17T19:49:32;10.30;99.90
21035;DHT22;10676;50.848;3.272;2022-09-17T19:51:58;10.40;99.90
21035;DHT22;10676;50.848;3.272;2022-09-17T19:54:23;10.40;99.90
21035;DHT22;10676;50.848;3.272;2022-09-17T19:56:49;10.50;99.90
21035;DHT22;10676;50.848;3.272;2022-09-17T19:59:15;10.60;99.90
21035;DHT22;10676;50.848;3.272;2022-09-17T20:01:40;10.70;99.90
21035;DHT22;10676;50.848;3.272;2022-09-17T20:04:06;10.80;99.90